CheckWX is a tool to help pilots better visualize weather data.  It is not intended as a substitute for an official pre-flight weather briefing.

02:51:23 UTC

YTNK METAR
Tennant Creek Airport
Tennant Creek, Australia
Current

51 mins ago

YTNK 260200Z AUTO 10019KT 9999 // NCD 25/M03 Q1020
Observed
Aug-26 @ 02:00 UTC
Wind
  • 100° at 19 KTS
Visibility
10,000+ meters
Flight Rules
VFR
Cloud Levels
  • Clear skies
Temperature
25°C / 77°F
Dewpoint
-3°C / 27°F
Humidity
15%
Altimeter
30.12" Hg
Pressure
1019.92 hPa
Previous

2 hours ago

YTNK 260100Z AUTO 10018KT 9999 // NCD 23/M02 Q1021
Observed
Aug-26 @ 01:00 UTC
Wind
  • 100° at 18 KTS
Visibility
10,000+ meters
Flight Rules
VFR
Cloud Levels
  • Clear skies
Temperature
23°C / 73°F
Dewpoint
-2°C / 28°F
Humidity
19%
Altimeter
30.15" Hg
Pressure
1020.92 hPa
Previous

3 hours ago

YTNK 260000Z AUTO 11021KT 9999 // NCD 20/M01 Q1021
Observed
Aug-26 @ 00:00 UTC
Wind
  • 110° at 21 KTS
Visibility
10,000+ meters
Flight Rules
VFR
Cloud Levels
  • Clear skies
Temperature
20°C / 68°F
Dewpoint
-1°C / 30°F
Humidity
24%
Altimeter
30.15" Hg
Pressure
1020.92 hPa